sensor_id;sensor_type;location;lat;lon;timestamp;pressure;altitude;pressure_sealevel;temperature;humidity
5966;BME280;3009;43.224;27.976;2024-01-15T00:01:51;99898.28;;;1.05;61.04
5966;BME280;3009;43.224;27.976;2024-01-15T00:04:19;99902.06;;;1.15;60.54
5966;BME280;3009;43.224;27.976;2024-01-15T00:06:49;99906.47;;;1.04;61.16
5966;BME280;3009;43.224;27.976;2024-01-15T00:09:17;99911.19;;;0.97;61.83
5966;BME280;3009;43.224;27.976;2024-01-15T00:11:46;99908.00;;;0.95;62.35
5966;BME280;3009;43.224;27.976;2024-01-15T00:14:14;99907.47;;;0.93;62.50
5966;BME280;3009;43.224;27.976;2024-01-15T00:16:48;99898.41;;;0.78;62.99
5966;BME280;3009;43.224;27.976;2024-01-15T00:19:18;99893.59;;;0.70;63.25
5966;BME280;3009;43.224;27.976;2024-01-15T00:21:47;99889.81;;;0.56;63.84
5966;BME280;3009;43.224;27.976;2024-01-15T00:24:15;99898.13;;;0.42;64.99
5966;BME280;3009;43.224;27.976;2024-01-15T00:26:44;99897.34;;;0.42;65.15
5966;BME280;3009;43.224;27.976;2024-01-15T00:29:12;99906.38;;;0.46;65.52
5966;BME280;3009;43.224;27.976;2024-01-15T00:31:41;99903.84;;;0.61;65.62
5966;BME280;3009;43.224;27.976;2024-01-15T00:34:11;99902.38;;;0.43;67.04
5966;BME280;3009;43.224;27.976;2024-01-15T00:36:39;99907.13;;;0.41;72.41
5966;BME280;3009;43.224;27.976;2024-01-15T00:39:08;99913.78;;;0.49;84.06
5966;BME280;3009;43.224;27.976;2024-01-15T00:41:37;99917.69;;;0.46;90.88
5966;BME280;3009;43.224;27.976;2024-01-15T00:44:06;99916.31;;;0.39;95.54
5966;BME280;3009;43.224;27.976;2024-01-15T00:46:42;99916.53;;;0.32;98.78
5966;BME280;3009;43.224;27.976;2024-01-15T00:49:13;99924.97;;;0.29;100.00
5966;BME280;3009;43.224;27.976;2024-01-15T00:51:41;99926.44;;;0.20;100.00
5966;BME280;3009;43.224;27.976;2024-01-15T00:54:10;99921.16;;;0.20;100.00
5966;BME280;3009;43.224;27.976;2024-01-15T00:56:39;99933.38;;;0.26;100.00
5966;BME280;3009;43.224;27.976;2024-01-15T00:59:07;99926.19;;;0.21;100.00
5966;BME280;3009;43.224;27.976;2024-01-15T01:01:37;99916.59;;;0.10;100.00
5966;BME280;3009;43.224;27.976;2024-01-15T01:04:10;99914.72;;;0.05;100.00
5966;BME280;3009;43.224;27.976;2024-01-15T01:06:40;99918.03;;;-0.05;100.00
5966;BME280;3009;43.224;27.976;2024-01-15T01:09:09;99917.69;;;-0.13;100.00
5966;BME280;3009;43.224;27.976;2024-01-15T01:11:37;99921.50;;;-0.26;100.00
5966;BME280;3009;43.224;27.976;2024-01-15T01:14:06;99915.47;;;-0.22;100.00
5966;BME280;3009;43.224;27.976;2024-01-15T01:16:34;99917.59;;;-0.24;100.00
5966;BME280;3009;43.224;27.976;2024-01-15T01:19:06;99910.41;;;-0.28;100.00
5966;BME280;3009;43.224;27.976;2024-01-15T01:21:35;99913.41;;;-0.20;100.00
5966;BME280;3009;43.224;27.976;2024-01-15T01:24:05;99909.22;;;-0.15;99.27
5966;BME280;3009;43.224;27.976;2024-01-15T01:26:34;99909.72;;;-0.19;97.57
5966;BME280;3009;43.224;27.976;2024-01-15T01:29:02;99905.31;;;-0.35;97.77
5966;BME280;3009;43.224;27.976;2024-01-15T01:31:31;99897.91;;;-0.38;96.54
5966;BME280;3009;43.224;27.976;2024-01-15T01:33:59;99901.16;;;-0.31;92.96
5966;BME280;3009;43.224;27.976;2024-01-15T01:36:28;99894.53;;;-0.11;89.54
5966;BME280;3009;43.224;27.976;2024-01-15T01:38:56;99903.53;;;-0.07;88.28
5966;BME280;3009;43.224;27.976;2024-01-15T01:41:26;99904.28;;;-0.12;87.59
5966;BME280;3009;43.224;27.976;2024-01-15T01:43:54;99898.09;;;-0.23;88.39
5966;BME280;3009;43.224;27.976;2024-01-15T01:46:24;99896.34;;;-0.39;88.88
5966;BME280;3009;43.224;27.976;2024-01-15T01:48:55;99891.44;;;-0.52;88.58
5966;BME280;3009;43.224;27.976;2024-01-15T01:51:24;99892.84;;;-0.67;89.49
5966;BME280;3009;43.224;27.976;2024-01-15T01:53:53;99899.78;;;-0.83;90.24
5966;BME280;3009;43.224;27.976;2024-01-15T01:56:22;99892.78;;;-0.94;91.97
5966;BME280;3009;43.224;27.976;2024-01-15T01:58:52;99897.72;;;-0.98;92.65
5966;BME280;3009;43.224;27.976;2024-01-15T02:01:21;99887.63;;;-1.06;92.97
5966;BME280;3009;43.224;27.976;2024-01-15T02:03:50;99889.63;;;-1.13;92.78
5966;BME280;3009;43.224;27.976;2024-01-15T02:06:19;99892.31;;;-1.08;92.14
5966;BME280;3009;43.224;27.976;2024-01-15T02:08:47;99882.34;;;-1.06;91.39
5966;BME280;3009;43.224;27.976;2024-01-15T02:11:16;99883.22;;;-1.00;90.66
5966;BME280;3009;43.224;27.976;2024-01-15T02:13:45;99885.66;;;-0.94;89.73
5966;BME280;3009;43.224;27.976;2024-01-15T02:16:14;99875.72;;;-0.92;89.01
5966;BME280;3009;43.224;27.976;2024-01-15T02:18:45;99873.63;;;-0.90;88.12
5966;BME280;3009;43.224;27.976;2024-01-15T02:21:14;99874.88;;;-0.92;88.06
5966;BME280;3009;43.224;27.976;2024-01-15T02:23:44;99869.53;;;-0.80;87.04
5966;BME280;3009;43.224;27.976;2024-01-15T02:26:12;99871.41;;;-0.76;85.80
5966;BME280;3009;43.224;27.976;2024-01-15T02:28:42;99866.22;;;-0.70;84.80
5966;BME280;3009;43.224;27.976;2024-01-15T02:31:11;99880.50;;;-0.66;83.56
5966;BME280;3009;43.224;27.976;2024-01-15T02:33:39;99879.75;;;-0.62;82.83
5966;BME280;3009;43.224;27.976;2024-01-15T02:36:10;99875.69;;;-0.47;81.24
5966;BME280;3009;43.224;27.976;2024-01-15T02:38:38;99884.81;;;-0.33;79.92
5966;BME280;3009;43.224;27.976;2024-01-15T02:41:08;99875.19;;;-0.22;79.12
5966;BME280;3009;43.224;27.976;2024-01-15T02:43:37;99880.50;;;-0.17;78.52
5966;BME280;3009;43.224;27.976;2024-01-15T02:46:05;99878.72;;;-0.11;77.73
5966;BME280;3009;43.224;27.976;2024-01-15T02:48:33;99879.16;;;-0.20;77.76
5966;BME280;3009;43.224;27.976;2024-01-15T02:51:03;99872.72;;;-0.29;78.15
5966;BME280;3009;43.224;27.976;2024-01-15T02:53:31;99872.44;;;-0.32;78.36
5966;BME280;3009;43.224;27.976;2024-01-15T02:56:00;99867.94;;;-0.32;78.00
5966;BME280;3009;43.224;27.976;2024-01-15T02:58:30;99877.47;;;-0.31;77.86
5966;BME280;3009;43.224;27.976;2024-01-15T03:00:58;99873.78;;;-0.30;78.36
5966;BME280;3009;43.224;27.976;2024-01-15T03:03:27;99874.53;;;-0.34;79.11
5966;BME280;3009;43.224;27.976;2024-01-15T03:05:56;99875.84;;;-0.32;78.97
5966;BME280;3009;43.224;27.976;2024-01-15T03:08:24;99865.38;;;-0.27;78.76
5966;BME280;3009;43.224;27.976;2024-01-15T03:10:53;99875.72;;;-0.20;78.06
5966;BME280;3009;43.224;27.976;2024-01-15T03:13:21;99866.97;;;-0.26;78.22
5966;BME280;3009;43.224;27.976;2024-01-15T03:15:51;99873.53;;;-0.28;78.35
5966;BME280;3009;43.224;27.976;2024-01-15T03:18:19;99871.19;;;-0.25;77.99
5966;BME280;3009;43.224;27.976;2024-01-15T03:20:48;99874.94;;;-0.21;77.54
5966;BME280;3009;43.224;27.976;2024-01-15T03:23:16;99872.84;;;-0.19;77.30
5966;BME280;3009;43.224;27.976;2024-01-15T03:25:45;99874.44;;;-0.17;77.27
5966;BME280;3009;43.224;27.976;2024-01-15T03:28:13;99872.03;;;-0.19;77.04
5966;BME280;3009;43.224;27.976;2024-01-15T03:30:42;99868.06;;;-0.22;77.39
5966;BME280;3009;43.224;27.976;2024-01-15T03:33:12;99869.56;;;-0.31;77.86
5966;BME280;3009;43.224;27.976;2024-01-15T03:35:41;99871.81;;;-0.40;78.80
5966;BME280;3009;43.224;27.976;2024-01-15T03:38:09;99869.50;;;-0.36;78.54
5966;BME280;3009;43.224;27.976;2024-01-15T03:40:38;99874.53;;;-0.34;78.26
5966;BME280;3009;43.224;27.976;2024-01-15T03:43:06;99874.31;;;-0.28;78.08
5966;BME280;3009;43.224;27.976;2024-01-15T03:45:35;99882.09;;;-0.16;77.90
5966;BME280;3009;43.224;27.976;2024-01-15T03:48:04;99880.59;;;-0.07;77.87
5966;BME280;3009;43.224;27.976;2024-01-15T03:50:34;99869.06;;;-0.01;77.22
5966;BME280;3009;43.224;27.976;2024-01-15T03:53:03;99875.31;;;-0.07;77.47
5966;BME280;3009;43.224;27.976;2024-01-15T03:55:32;99870.34;;;-0.03;77.37
5966;BME280;3009;43.224;27.976;2024-01-15T03:58:00;99871.78;;;0.10;76.59
5966;BME280;3009;43.224;27.976;2024-01-15T04:00:29;99881.84;;;0.18;75.82
5966;BME280;3009;43.224;27.976;2024-01-15T04:02:58;99874.00;;;0.23;76.19
5966;BME280;3009;43.224;27.976;2024-01-15T04:05:27;99876.69;;;0.28;75.98
5966;BME280;3009;43.224;27.976;2024-01-15T04:07:56;99876.72;;;0.33;76.08
5966;BME280;3009;43.224;27.976;2024-01-15T04:10:25;99875.97;;;0.38;75.33
5966;BME280;3009;43.224;27.976;2024-01-15T04:12:53;99874.13;;;0.39;74.96
5966;BME280;3009;43.224;27.976;2024-01-15T04:15:22;99876.78;;;0.44;74.38
5966;BME280;3009;43.224;27.976;2024-01-15T04:17:52;99880.81;;;0.51;74.22
5966;BME280;3009;43.224;27.976;2024-01-15T04:20:20;99883.13;;;0.43;74.60
5966;BME280;3009;43.224;27.976;2024-01-15T04:22:51;99868.09;;;0.43;74.95
5966;BME280;3009;43.224;27.976;2024-01-15T04:25:21;99883.41;;;0.46;74.39
5966;BME280;3009;43.224;27.976;2024-01-15T04:27:50;99869.78;;;0.60;72.93
5966;BME280;3009;43.224;27.976;2024-01-15T04:30:18;99878.56;;;0.70;71.82
5966;BME280;3009;43.224;27.976;2024-01-15T04:32:47;99878.78;;;0.64;72.14
5966;BME280;3009;43.224;27.976;2024-01-15T04:35:15;99878.22;;;0.57;73.03
5966;BME280;3009;43.224;27.976;2024-01-15T04:37:44;99875.56;;;0.51;73.72
5966;BME280;3009;43.224;27.976;2024-01-15T04:40:13;99885.03;;;0.52;73.99
5966;BME280;3009;43.224;27.976;2024-01-15T04:42:43;99878.78;;;0.64;74.05
5966;BME280;3009;43.224;27.976;2024-01-15T04:45:12;99876.25;;;0.79;74.04
5966;BME280;3009;43.224;27.976;2024-01-15T04:47:41;99869.47;;;0.94;73.49
5966;BME280;3009;43.224;27.976;2024-01-15T04:50:10;99879.53;;;1.02;72.60
5966;BME280;3009;43.224;27.976;2024-01-15T04:52:38;99882.25;;;1.12;72.56
5966;BME280;3009;43.224;27.976;2024-01-15T04:55:07;99879.59;;;1.12;72.68
5966;BME280;3009;43.224;27.976;2024-01-15T04:57:35;99873.75;;;1.10;72.82
5966;BME280;3009;43.224;27.976;2024-01-15T05:00:06;99878.84;;;1.22;72.05
5966;BME280;3009;43.224;27.976;2024-01-15T05:02:35;99878.09;;;1.37;71.99
5966;BME280;3009;43.224;27.976;2024-01-15T05:05:04;99875.75;;;1.40;71.86
5966;BME280;3009;43.224;27.976;2024-01-15T05:07:32;99868.88;;;1.39;72.03
5966;BME280;3009;43.224;27.976;2024-01-15T05:10:01;99867.09;;;1.61;70.98
5966;BME280;3009;43.224;27.976;2024-01-15T05:12:30;99868.69;;;1.72;69.88
5966;BME280;3009;43.224;27.976;2024-01-15T05:14:58;99869.78;;;1.71;70.34
5966;BME280;3009;43.224;27.976;2024-01-15T05:17:28;99864.97;;;1.63;70.60
5966;BME280;3009;43.224;27.976;2024-01-15T05:19:57;99870.56;;;1.71;70.43
5966;BME280;3009;43.224;27.976;2024-01-15T05:22:26;99860.25;;;1.75;70.29
5966;BME280;3009;43.224;27.976;2024-01-15T05:24:55;99859.97;;;1.66;70.81
5966;BME280;3009;43.224;27.976;2024-01-15T05:27:23;99861.31;;;1.74;70.43
5966;BME280;3009;43.224;27.976;2024-01-15T05:29:52;99869.28;;;1.84;70.38
5966;BME280;3009;43.224;27.976;2024-01-15T05:32:20;99878.81;;;2.11;68.97
5966;BME280;3009;43.224;27.976;2024-01-15T05:34:50;99862.44;;;2.19;68.42
5966;BME280;3009;43.224;27.976;2024-01-15T05:37:18;99864.00;;;2.25;68.12
5966;BME280;3009;43.224;27.976;2024-01-15T05:39:47;99865.59;;;2.21;68.36
5966;BME280;3009;43.224;27.976;2024-01-15T05:42:18;99869.28;;;2.30;67.97
5966;BME280;3009;43.224;27.976;2024-01-15T05:44:47;99865.03;;;2.40;67.13
5966;BME280;3009;43.224;27.976;2024-01-15T05:47:15;99862.69;;;2.43;66.92
5966;BME280;3009;43.224;27.976;2024-01-15T05:49:44;99863.19;;;2.66;65.65
5966;BME280;3009;43.224;27.976;2024-01-15T05:52:14;99858.63;;;2.87;64.59
5966;BME280;3009;43.224;27.976;2024-01-15T05:54:43;99858.06;;;3.00;64.21
5966;BME280;3009;43.224;27.976;2024-01-15T05:57:11;99861.44;;;3.16;63.09
5966;BME280;3009;43.224;27.976;2024-01-15T05:59:40;99865.94;;;3.21;62.46
5966;BME280;3009;43.224;27.976;2024-01-15T06:02:08;99866.47;;;3.23;62.54
5966;BME280;3009;43.224;27.976;2024-01-15T06:04:36;99862.22;;;3.22;63.05
5966;BME280;3009;43.224;27.976;2024-01-15T06:07:05;99865.22;;;3.05;63.32
5966;BME280;3009;43.224;27.976;2024-01-15T06:09:35;99858.31;;;3.04;63.36
5966;BME280;3009;43.224;27.976;2024-01-15T06:12:04;99863.84;;;3.13;62.31
5966;BME280;3009;43.224;27.976;2024-01-15T06:14:32;99857.97;;;3.21;61.23
5966;BME280;3009;43.224;27.976;2024-01-15T06:17:01;99868.63;;;3.11;61.20
5966;BME280;3009;43.224;27.976;2024-01-15T06:19:30;99860.09;;;3.29;60.37
5966;BME280;3009;43.224;27.976;2024-01-15T06:21:58;99858.69;;;3.42;59.31
5966;BME280;3009;43.224;27.976;2024-01-15T06:24:27;99852.03;;;3.50;58.86
5966;BME280;3009;43.224;27.976;2024-01-15T06:26:57;99860.94;;;3.69;57.37
5966;BME280;3009;43.224;27.976;2024-01-15T06:29:26;99860.81;;;3.85;56.48
5966;BME280;3009;43.224;27.976;2024-01-15T06:31:54;99853.34;;;3.97;56.24
5966;BME280;3009;43.224;27.976;2024-01-15T06:34:23;99842.06;;;4.11;55.52
5966;BME280;3009;43.224;27.976;2024-01-15T06:36:52;99839.88;;;4.23;54.35
5966;BME280;3009;43.224;27.976;2024-01-15T06:39:20;99847.50;;;4.30;54.11
5966;BME280;3009;43.224;27.976;2024-01-15T06:41:49;99845.59;;;4.35;53.57
5966;BME280;3009;43.224;27.976;2024-01-15T06:44:19;99845.06;;;4.33;53.78
5966;BME280;3009;43.224;27.976;2024-01-15T06:46:48;99847.19;;;4.36;54.13
5966;BME280;3009;43.224;27.976;2024-01-15T06:49:16;99851.88;;;4.44;54.23
5966;BME280;3009;43.224;27.976;2024-01-15T06:51:45;99845.81;;;4.44;56.12
5966;BME280;3009;43.224;27.976;2024-01-15T06:54:15;99847.66;;;4.43;62.69
5966;BME280;3009;43.224;27.976;2024-01-15T06:56:44;99838.69;;;4.34;66.30
5966;BME280;3009;43.224;27.976;2024-01-15T06:59:12;99834.50;;;4.28;64.04
5966;BME280;3009;43.224;27.976;2024-01-15T07:01:47;99830.25;;;4.27;59.96
5966;BME280;3009;43.224;27.976;2024-01-15T07:04:16;99834.94;;;4.40;57.06
5966;BME280;3009;43.224;27.976;2024-01-15T07:06:44;99835.97;;;4.44;57.18
5966;BME280;3009;43.224;27.976;2024-01-15T07:09:15;99839.28;;;4.60;56.34
5966;BME280;3009;43.224;27.976;2024-01-15T07:11:46;99839.69;;;4.73;55.90
5966;BME280;3009;43.224;27.976;2024-01-15T07:14:15;99841.88;;;4.66;54.76
5966;BME280;3009;43.224;27.976;2024-01-15T07:16:43;99831.94;;;4.76;55.96
5966;BME280;3009;43.224;27.976;2024-01-15T07:19:16;99829.09;;;4.92;54.65
5966;BME280;3009;43.224;27.976;2024-01-15T07:21:44;99830.28;;;5.05;53.65
5966;BME280;3009;43.224;27.976;2024-01-15T07:24:13;99829.44;;;5.09;52.87
5966;BME280;3009;43.224;27.976;2024-01-15T07:26:42;99834.63;;;5.20;52.89
5966;BME280;3009;43.224;27.976;2024-01-15T07:29:11;99837.66;;;5.32;51.39
5966;BME280;3009;43.224;27.976;2024-01-15T07:31:40;99835.38;;;5.44;50.75
5966;BME280;3009;43.224;27.976;2024-01-15T07:34:08;99829.91;;;5.55;50.00
5966;BME280;3009;43.224;27.976;2024-01-15T07:36:38;99828.47;;;5.62;49.37
5966;BME280;3009;43.224;27.976;2024-01-15T07:39:07;99824.38;;;5.70;49.11
5966;BME280;3009;43.224;27.976;2024-01-15T07:41:35;99821.66;;;5.75;49.21
5966;BME280;3009;43.224;27.976;2024-01-15T07:44:05;99811.03;;;5.75;48.92
5966;BME280;3009;43.224;27.976;2024-01-15T07:46:33;99815.09;;;5.86;47.92
5966;BME280;3009;43.224;27.976;2024-01-15T07:49:02;99814.47;;;5.76;48.63
5966;BME280;3009;43.224;27.976;2024-01-15T07:51:32;99821.78;;;5.84;54.90
5966;BME280;3009;43.224;27.976;2024-01-15T07:54:02;99822.44;;;5.76;56.02
5966;BME280;3009;43.224;27.976;2024-01-15T07:56:31;99823.78;;;5.73;53.92
5966;BME280;3009;43.224;27.976;2024-01-15T07:58:59;99822.72;;;5.74;52.90
5966;BME280;3009;43.224;27.976;2024-01-15T08:01:28;99816.25;;;5.80;52.14
5966;BME280;3009;43.224;27.976;2024-01-15T08:03:56;99811.94;;;5.84;52.91
5966;BME280;3009;43.224;27.976;2024-01-15T08:06:25;99821.06;;;5.97;51.93
5966;BME280;3009;43.224;27.976;2024-01-15T08:08:54;99811.63;;;6.05;52.61
5966;BME280;3009;43.224;27.976;2024-01-15T08:11:23;99818.44;;;6.11;52.29
5966;BME280;3009;43.224;27.976;2024-01-15T08:13:52;99822.28;;;6.05;53.20
5966;BME280;3009;43.224;27.976;2024-01-15T08:16:20;99828.22;;;6.16;54.26
5966;BME280;3009;43.224;27.976;2024-01-15T08:18:51;99826.22;;;6.08;55.17
5966;BME280;3009;43.224;27.976;2024-01-15T08:21:19;99825.94;;;6.09;54.46
5966;BME280;3009;43.224;27.976;2024-01-15T08:23:48;99826.53;;;6.06;54.97
5966;BME280;3009;43.224;27.976;2024-01-15T08:26:16;99826.63;;;6.01;55.26
5966;BME280;3009;43.224;27.976;2024-01-15T08:28:46;99842.56;;;5.63;56.25
5966;BME280;3009;43.224;27.976;2024-01-15T08:31:15;99825.25;;;5.84;56.57
5966;BME280;3009;43.224;27.976;2024-01-15T08:33:43;99825.72;;;5.86;57.62
5966;BME280;3009;43.224;27.976;2024-01-15T08:36:12;99827.97;;;5.98;58.82
5966;BME280;3009;43.224;27.976;2024-01-15T08:38:40;99837.75;;;6.03;60.04
5966;BME280;3009;43.224;27.976;2024-01-15T08:41:09;99840.13;;;5.66;62.17
5966;BME280;3009;43.224;27.976;2024-01-15T08:43:38;99836.09;;;5.88;62.01
5966;BME280;3009;43.224;27.976;2024-01-15T08:46:08;99837.59;;;5.56;64.84
5966;BME280;3009;43.224;27.976;2024-01-15T08:48:37;99847.75;;;5.54;66.54
5966;BME280;3009;43.224;27.976;2024-01-15T08:51:06;99831.56;;;5.70;67.20
5966;BME280;3009;43.224;27.976;2024-01-15T08:53:36;99817.59;;;5.78;67.36
5966;BME280;3009;43.224;27.976;2024-01-15T08:56:06;99820.84;;;5.75;69.97
5966;BME280;3009;43.224;27.976;2024-01-15T08:58:35;99816.25;;;5.80;69.23
5966;BME280;3009;43.224;27.976;2024-01-15T09:01:04;99811.78;;;5.76;70.05
5966;BME280;3009;43.224;27.976;2024-01-15T09:03:34;99806.34;;;5.67;69.23
5966;BME280;3009;43.224;27.976;2024-01-15T09:06:04;99795.91;;;5.71;68.01
5966;BME280;3009;43.224;27.976;2024-01-15T09:08:32;99787.91;;;5.71;66.12
5966;BME280;3009;43.224;27.976;2024-01-15T09:11:01;99788.72;;;5.71;66.45
5966;BME280;3009;43.224;27.976;2024-01-15T09:13:30;99780.59;;;5.62;67.01
5966;BME280;3009;43.224;27.976;2024-01-15T09:15:59;99771.69;;;5.53;68.37
5966;BME280;3009;43.224;27.976;2024-01-15T09:18:29;99761.22;;;5.62;68.04
5966;BME280;3009;43.224;27.976;2024-01-15T09:20:59;99761.34;;;5.52;67.09
5966;BME280;3009;43.224;27.976;2024-01-15T09:23:28;99758.09;;;5.74;67.30
5966;BME280;3009;43.224;27.976;2024-01-15T09:25:56;99749.47;;;5.96;66.28
5966;BME280;3009;43.224;27.976;2024-01-15T09:28:24;99745.06;;;5.72;68.02
5966;BME280;3009;43.224;27.976;2024-01-15T09:30:53;99741.47;;;6.01;66.61
5966;BME280;3009;43.224;27.976;2024-01-15T09:33:22;99734.38;;;6.24;66.02
5966;BME280;3009;43.224;27.976;2024-01-15T09:35:50;99733.63;;;6.37;64.46
5966;BME280;3009;43.224;27.976;2024-01-15T09:38:20;99736.56;;;6.36;63.37
5966;BME280;3009;43.224;27.976;2024-01-15T09:40:51;99740.72;;;6.56;61.55
5966;BME280;3009;43.224;27.976;2024-01-15T09:43:20;99732.72;;;6.42;58.38
5966;BME280;3009;43.224;27.976;2024-01-15T09:45:49;99729.25;;;6.28;58.31
5966;BME280;3009;43.224;27.976;2024-01-15T09:48:19;99721.72;;;6.02;59.05
5966;BME280;3009;43.224;27.976;2024-01-15T09:50:47;99716.03;;;6.09;57.86
5966;BME280;3009;43.224;27.976;2024-01-15T09:53:16;99715.47;;;6.26;57.52
5966;BME280;3009;43.224;27.976;2024-01-15T09:55:49;99706.59;;;6.44;55.54
5966;BME280;3009;43.224;27.976;2024-01-15T09:58:18;99707.78;;;6.38;55.61
5966;BME280;3009;43.224;27.976;2024-01-15T10:00:48;99695.91;;;6.58;56.33
5966;BME280;3009;43.224;27.976;2024-01-15T10:03:17;99700.28;;;6.54;55.75
5966;BME280;3009;43.224;27.976;2024-01-15T10:05:46;99698.50;;;6.49;56.26
5966;BME280;3009;43.224;27.976;2024-01-15T10:08:15;99697.13;;;6.38;56.93
5966;BME280;3009;43.224;27.976;2024-01-15T10:10:43;99686.66;;;6.55;56.89
5966;BME280;3009;43.224;27.976;2024-01-15T10:13:14;99685.44;;;6.76;56.86
5966;BME280;3009;43.224;27.976;2024-01-15T10:15:45;99692.94;;;6.87;57.25
5966;BME280;3009;43.224;27.976;2024-01-15T10:18:15;99682.44;;;6.91;58.16
5966;BME280;3009;43.224;27.976;2024-01-15T10:20:44;99686.19;;;7.04;58.91
5966;BME280;3009;43.224;27.976;2024-01-15T10:23:14;99679.94;;;7.08;59.12
5966;BME280;3009;43.224;27.976;2024-01-15T10:25:42;99662.25;;;7.13;63.66
5966;BME280;3009;43.224;27.976;2024-01-15T10:28:14;99662.06;;;7.09;67.20
5966;BME280;3009;43.224;27.976;2024-01-15T10:30:43;99654.19;;;7.04;68.88
5966;BME280;3009;43.224;27.976;2024-01-15T10:33:12;99645.50;;;6.98;73.71
5966;BME280;3009;43.224;27.976;2024-01-15T10:35:42;99654.38;;;7.07;78.21
5966;BME280;3009;43.224;27.976;2024-01-15T10:38:11;99640.13;;;7.12;82.83
5966;BME280;3009;43.224;27.976;2024-01-15T10:40:39;99641.81;;;7.31;83.79
5966;BME280;3009;43.224;27.976;2024-01-15T10:43:09;99632.94;;;7.35;84.96
5966;BME280;3009;43.224;27.976;2024-01-15T10:45:40;99620.44;;;7.22;88.21
5966;BME280;3009;43.224;27.976;2024-01-15T10:48:08;99613.16;;;7.36;89.89
5966;BME280;3009;43.224;27.976;2024-01-15T10:50:37;99608.25;;;7.30;90.35
5966;BME280;3009;43.224;27.976;2024-01-15T10:53:06;99605.44;;;7.57;90.47
5966;BME280;3009;43.224;27.976;2024-01-15T10:55:37;99593.22;;;7.65;89.69
5966;BME280;3009;43.224;27.976;2024-01-15T10:58:07;99593.00;;;7.84;88.87
5966;BME280;3009;43.224;27.976;2024-01-15T11:00:35;99585.19;;;7.56;90.25
5966;BME280;3009;43.224;27.976;2024-01-15T11:03:06;99579.72;;;7.61;91.53
5966;BME280;3009;43.224;27.976;2024-01-15T11:05:37;99577.41;;;7.69;92.46
5966;BME280;3009;43.224;27.976;2024-01-15T11:08:06;99580.56;;;7.79;93.14
5966;BME280;3009;43.224;27.976;2024-01-15T11:10:38;99567.03;;;7.76;92.35
5966;BME280;3009;43.224;27.976;2024-01-15T11:13:09;99573.72;;;7.56;92.92
5966;BME280;3009;43.224;27.976;2024-01-15T11:15:57;99570.22;;;7.47;99.42
5966;BME280;3009;43.224;27.976;2024-01-15T11:18:29;99568.94;;;7.35;100.00
5966;BME280;3009;43.224;27.976;2024-01-15T11:21:19;99563.66;;;7.21;100.00
5966;BME280;3009;43.224;27.976;2024-01-15T11:23:50;99565.56;;;6.98;100.00
5966;BME280;3009;43.224;27.976;2024-01-15T11:26:32;99567.13;;;7.22;100.00
5966;BME280;3009;43.224;27.976;2024-01-15T11:29:02;99563.19;;;7.19;100.00
5966;BME280;3009;43.224;27.976;2024-01-15T11:32:01;99551.47;;;7.29;100.00
5966;BME280;3009;43.224;27.976;2024-01-15T11:34:52;99555.88;;;7.02;100.00
5966;BME280;3009;43.224;27.976;2024-01-15T11:37:21;99557.63;;;7.07;100.00
5966;BME280;3009;43.224;27.976;2024-01-15T11:39:52;99553.63;;;6.96;100.00
5966;BME280;3009;43.224;27.976;2024-01-15T11:42:22;99544.00;;;7.08;100.00
5966;BME280;3009;43.224;27.976;2024-01-15T11:44:51;99545.06;;;7.07;100.00
5966;BME280;3009;43.224;27.976;2024-01-15T11:50:22;99546.72;;;6.95;100.00
5966;BME280;3009;43.224;27.976;2024-01-15T11:52:58;99540.28;;;6.96;100.00
5966;BME280;3009;43.224;27.976;2024-01-15T11:55:34;99539.69;;;6.99;100.00
5966;BME280;3009;43.224;27.976;2024-01-15T11:58:08;99542.22;;;6.59;100.00
5966;BME280;3009;43.224;27.976;2024-01-15T12:00:39;99546.97;;;6.84;100.00
5966;BME280;3009;43.224;27.976;2024-01-15T12:03:09;99539.69;;;6.76;100.00
5966;BME280;3009;43.224;27.976;2024-01-15T12:05:40;99530.25;;;6.92;100.00
5966;BME280;3009;43.224;27.976;2024-01-15T12:08:09;99528.25;;;6.98;100.00
5966;BME280;3009;43.224;27.976;2024-01-15T12:10:39;99530.13;;;6.98;100.00
5966;BME280;3009;43.224;27.976;2024-01-15T12:13:11;99523.13;;;7.10;100.00
5966;BME280;3009;43.224;27.976;2024-01-15T12:15:41;99511.88;;;7.14;100.00
5966;BME280;3009;43.224;27.976;2024-01-15T12:18:12;99515.13;;;7.10;100.00
5966;BME280;3009;43.224;27.976;2024-01-15T12:20:43;99517.59;;;6.98;100.00
5966;BME280;3009;43.224;27.976;2024-01-15T12:23:14;99509.16;;;7.05;100.00
5966;BME280;3009;43.224;27.976;2024-01-15T12:25:44;99502.50;;;6.94;100.00
5966;BME280;3009;43.224;27.976;2024-01-15T12:28:13;99502.19;;;6.95;100.00
5966;BME280;3009;43.224;27.976;2024-01-15T12:30:41;99501.06;;;6.65;100.00
5966;BME280;3009;43.224;27.976;2024-01-15T12:33:11;99504.94;;;6.81;100.00
5966;BME280;3009;43.224;27.976;2024-01-15T12:35:41;99500.09;;;6.83;100.00
5966;BME280;3009;43.224;27.976;2024-01-15T12:38:10;99505.72;;;6.82;100.00
5966;BME280;3009;43.224;27.976;2024-01-15T12:40:39;99494.41;;;6.76;100.00
5966;BME280;3009;43.224;27.976;2024-01-15T12:43:10;99490.78;;;6.72;100.00
5966;BME280;3009;43.224;27.976;2024-01-15T12:45:38;99491.50;;;6.64;100.00
5966;BME280;3009;43.224;27.976;2024-01-15T12:48:07;99483.94;;;6.80;100.00
5966;BME280;3009;43.224;27.976;2024-01-15T12:50:35;99487.75;;;6.87;100.00
5966;BME280;3009;43.224;27.976;2024-01-15T12:53:05;99473.91;;;6.85;100.00
5966;BME280;3009;43.224;27.976;2024-01-15T12:55:35;99465.28;;;6.80;100.00
5966;BME280;3009;43.224;27.976;2024-01-15T12:58:04;99470.38;;;6.67;100.00
5966;BME280;3009;43.224;27.976;2024-01-15T13:00:32;99470.31;;;6.59;100.00
5966;BME280;3009;43.224;27.976;2024-01-15T13:03:02;99474.53;;;6.60;100.00
5966;BME280;3009;43.224;27.976;2024-01-15T13:05:32;99478.31;;;6.59;100.00
5966;BME280;3009;43.224;27.976;2024-01-15T13:08:01;99473.28;;;6.57;100.00
5966;BME280;3009;43.224;27.976;2024-01-15T13:10:31;99483.41;;;6.69;100.00
5966;BME280;3009;43.224;27.976;2024-01-15T13:13:00;99472.31;;;6.76;100.00
5966;BME280;3009;43.224;27.976;2024-01-15T13:15:29;99471.16;;;6.68;100.00
5966;BME280;3009;43.224;27.976;2024-01-15T13:17:58;99467.75;;;6.76;100.00
5966;BME280;3009;43.224;27.976;2024-01-15T13:20:27;99467.41;;;6.91;100.00
5966;BME280;3009;43.224;27.976;2024-01-15T13:22:56;99464.03;;;7.08;100.00
5966;BME280;3009;43.224;27.976;2024-01-15T13:25:24;99467.88;;;7.25;95.37
5966;BME280;3009;43.224;27.976;2024-01-15T13:27:54;99452.84;;;7.38;92.42
5966;BME280;3009;43.224;27.976;2024-01-15T13:30:23;99456.16;;;7.43;90.79
5966;BME280;3009;43.224;27.976;2024-01-15T13:32:51;99457.56;;;7.41;90.33